Time;durP1;ratioP1;P1;durP2;ratioP2;P2;SDS_P1;SDS_P2;PMS_P1;PMS_P2;Temp;Humidity;BMP_temperature;BMP_pressure;BME280_temperature;BME280_humidity;BME280_pressure;Samples;Min_cycle;Max_cycle;Signal;HPM_P1;HPM_P2
2023/04/22 00:00:18;;;;;;;4.82;2.67;;;;;;;;;;5053751;28;20204;-47
2023/04/22 00:03:04;;;;;;;3.78;2.22;;;;;;;;;;5054200;28;20199;-48
2023/04/22 00:05:32;;;;;;;5.57;2.40;;;;;;;;;;5053370;28;20731;-48
2023/04/22 00:07:59;;;;;;;4.53;2.47;;;;;;;;;;5044825;28;20585;-49
2023/04/22 00:10:27;;;;;;;8.27;4.15;;;;;;;;;;5073336;28;20237;-47
2023/04/22 00:12:54;;;;;;;8.60;4.28;;;;;;;;;;5073580;28;20257;-47
2023/04/22 00:15:21;;;;;;;12.00;5.57;;;;;;;;;;5073644;28;20281;-47
2023/04/22 00:17:48;;;;;;;18.70;7.20;;;;;;;;;;5073629;28;20204;-47
2023/04/22 00:20:17;;;;;;;14.48;5.22;;;;;;;;;;5073346;28;20235;-50
2023/04/22 00:22:44;;;;;;;6.90;3.42;;;;;;;;;;5073356;28;20611;-47
2023/04/22 00:25:11;;;;;;;6.47;2.80;;;;;;;;;;5073821;28;20207;-47
2023/04/22 00:27:38;;;;;;;3.90;2.80;;;;;;;;;;5073262;28;20261;-47
2023/04/22 00:30:06;;;;;;;7.95;2.85;;;;;;;;;;5055609;28;20655;-47
2023/04/22 00:32:34;;;;;;;5.15;2.38;;;;;;;;;;5055626;28;20696;-48
2023/04/22 00:35:01;;;;;;;4.13;2.53;;;;;;;;;;5073143;28;20557;-47
2023/04/22 00:37:28;;;;;;;4.38;2.53;;;;;;;;;;5073341;28;20223;-48
2023/04/22 00:39:56;;;;;;;4.85;2.40;;;;;;;;;;5073385;28;20199;-46
2023/04/22 00:42:24;;;;;;;4.95;2.85;;;;;;;;;;5073218;28;20233;-47
2023/04/22 00:44:51;;;;;;;4.82;2.75;;;;;;;;;;5073113;28;20254;-47
2023/04/22 00:47:19;;;;;;;6.78;3.97;;;;;;;;;;5055506;28;20218;-47
2023/04/22 00:49:48;;;;;;;7.68;4.20;;;;;;;;;;5055205;28;20660;-48
2023/04/22 00:52:15;;;;;;;5.60;3.00;;;;;;;;;;5039799;28;20257;-46
2023/04/22 00:54:42;;;;;;;5.55;2.90;;;;;;;;;;5059300;28;20270;-47
2023/04/22 00:57:10;;;;;;;14.25;6.57;;;;;;;;;;5043145;28;20231;-47
2023/04/22 00:59:37;;;;;;;73.88;26.02;;;;;;;;;;5077134;28;20199;-47
2023/04/22 01:02:05;;;;;;;56.80;21.00;;;;;;;;;;5059141;28;20207;-48
2023/04/22 01:04:33;;;;;;;24.20;8.90;;;;;;;;;;5076997;28;20278;-47
2023/04/22 01:07:01;;;;;;;16.73;6.63;;;;;;;;;;5042897;28;20262;-47
2023/04/22 01:09:28;;;;;;;13.55;5.47;;;;;;;;;;5076618;28;20542;-49
2023/04/22 01:11:56;;;;;;;8.25;4.35;;;;;;;;;;5058965;28;20204;-47
2023/04/22 01:14:23;;;;;;;6.45;3.30;;;;;;;;;;5076692;28;20242;-47
2023/04/22 01:16:52;;;;;;;7.85;3.35;;;;;;;;;;5076405;28;20688;-47
2023/04/22 01:19:20;;;;;;;5.78;3.15;;;;;;;;;;5076790;28;20562;-47
2023/04/22 01:21:51;;;;;;;6.15;3.38;;;;;;;;;;5076337;28;20235;-46
2023/04/22 01:24:18;;;;;;;5.35;2.70;;;;;;;;;;5058642;28;20282;-47
2023/04/22 01:26:46;;;;;;;5.88;2.97;;;;;;;;;;5076442;28;20203;-48
2023/04/22 01:29:14;;;;;;;5.35;3.13;;;;;;;;;;5076359;28;20252;-47
2023/04/22 01:31:41;;;;;;;4.43;2.88;;;;;;;;;;5076268;28;20207;-47
2023/04/22 01:34:08;;;;;;;5.03;3.03;;;;;;;;;;5076464;28;20277;-47
2023/04/22 01:36:35;;;;;;;5.88;3.17;;;;;;;;;;5076093;28;20696;-47
2023/04/22 01:39:02;;;;;;;4.13;2.88;;;;;;;;;;5058623;28;20205;-46
2023/04/22 01:41:30;;;;;;;5.30;3.03;;;;;;;;;;5076110;28;20199;-47
2023/04/22 01:43:59;;;;;;;7.72;4.40;;;;;;;;;;5076064;28;20203;-47
2023/04/22 01:46:27;;;;;;;8.65;4.05;;;;;;;;;;5076321;28;20203;-47
2023/04/22 01:48:54;;;;;;;16.27;6.78;;;;;;;;;;5076168;28;20302;-47
2023/04/22 01:51:22;;;;;;;21.17;6.50;;;;;;;;;;5058160;28;20206;-47
2023/04/22 01:53:49;;;;;;;5.97;3.13;;;;;;;;;;5076026;28;20196;-46
2023/04/22 01:56:17;;;;;;;9.25;3.55;;;;;;;;;;5075636;28;20235;-47
2023/04/22 01:58:44;;;;;;;12.40;5.32;;;;;;;;;;5058142;28;20209;-46
2023/04/22 02:01:13;;;;;;;7.13;4.05;;;;;;;;;;5057905;28;20233;-47
2023/04/22 02:03:40;;;;;;;21.55;7.93;;;;;;;;;;5057817;28;20207;-47
2023/04/22 02:06:10;;;;;;;19.50;7.30;;;;;;;;;;5057567;28;20192;-47
2023/04/22 02:08:37;;;;;;;10.88;4.80;;;;;;;;;;5057765;28;20208;-50
2023/04/22 02:11:04;;;;;;;11.95;5.57;;;;;;;;;;5057942;28;20211;-51
2023/04/22 02:13:35;;;;;;;11.50;4.97;;;;;;;;;;5057643;28;20207;-47
2023/04/22 02:16:03;;;;;;;38.63;14.10;;;;;;;;;;5057707;28;20219;-47
2023/04/22 02:18:30;;;;;;;26.10;9.65;;;;;;;;;;5075374;28;20725;-47
2023/04/22 02:20:58;;;;;;;23.65;9.60;;;;;;;;;;5057389;28;20231;-48
2023/04/22 02:23:26;;;;;;;16.15;6.80;;;;;;;;;;5075328;28;20207;-48
2023/04/22 02:25:54;;;;;;;14.82;5.70;;;;;;;;;;5057861;28;20207;-46
2023/04/22 02:28:21;;;;;;;9.75;4.75;;;;;;;;;;5063506;28;20208;-48
2023/04/22 02:30:49;;;;;;;10.60;4.85;;;;;;;;;;5057501;28;20211;-48
2023/04/22 02:33:16;;;;;;;4.18;2.72;;;;;;;;;;5075383;28;20210;-47
2023/04/22 02:35:43;;;;;;;7.10;3.88;;;;;;;;;;5074920;28;20203;-47
2023/04/22 02:38:15;;;;;;;5.72;3.50;;;;;;;;;;5057490;28;20237;-48
2023/04/22 02:40:42;;;;;;;6.75;3.28;;;;;;;;;;5057230;28;20203;-48
2023/04/22 02:43:10;;;;;;;6.30;2.90;;;;;;;;;;5057007;28;20207;-48
2023/04/22 02:45:39;;;;;;;7.80;3.15;;;;;;;;;;5057047;28;20253;-47
2023/04/22 02:48:07;;;;;;;4.93;2.85;;;;;;;;;;5056825;28;20207;-46
2023/04/22 02:50:35;;;;;;;6.35;3.20;;;;;;;;;;5056787;28;20282;-47
2023/04/22 02:53:02;;;;;;;6.07;3.38;;;;;;;;;;5074504;28;20680;-46
2023/04/22 02:55:29;;;;;;;12.98;6.25;;;;;;;;;;5074397;28;20203;-48
2023/04/22 02:57:56;;;;;;;13.25;5.45;;;;;;;;;;5056418;28;20231;-47
2023/04/22 03:00:24;;;;;;;13.13;5.78;;;;;;;;;;5056530;28;20203;-50
2023/04/22 03:02:51;;;;;;;9.73;5.32;;;;;;;;;;5056566;28;20198;-47
2023/04/22 03:05:23;;;;;;;7.47;4.18;;;;;;;;;;5056520;28;20207;-46
2023/04/22 03:07:50;;;;;;;12.80;5.82;;;;;;;;;;5040128;28;20215;-48
2023/04/22 03:10:18;;;;;;;7.13;3.60;;;;;;;;;;5056560;28;20211;-48
2023/04/22 03:12:45;;;;;;;4.65;3.17;;;;;;;;;;5056416;28;20226;-47
2023/04/22 03:15:12;;;;;;;4.57;2.78;;;;;;;;;;5056370;28;20204;-47
2023/04/22 03:17:39;;;;;;;8.48;4.18;;;;;;;;;;5074092;28;20227;-47
2023/04/22 03:20:12;;;;;;;5.45;3.40;;;;;;;;;;5056233;28;20284;-47
2023/04/22 03:22:40;;;;;;;7.30;3.08;;;;;;;;;;5056054;28;20294;-49
2023/04/22 03:25:09;;;;;;;6.78;3.03;;;;;;;;;;5056289;28;20203;-48
2023/04/22 03:27:36;;;;;;;4.75;3.28;;;;;;;;;;5055884;28;20602;-47
2023/04/22 03:30:06;;;;;;;3.97;3.15;;;;;;;;;;5055947;28;20200;-51
2023/04/22 03:32:33;;;;;;;8.27;4.18;;;;;;;;;;5055874;28;20207;-47
2023/04/22 03:35:15;;;;;;;9.07;4.72;;;;;;;;;;5056209;28;20207;-47
2023/04/22 03:37:44;;;;;;;7.65;3.63;;;;;;;;;;5055660;28;20687;-46
2023/04/22 03:40:16;;;;;;;7.38;3.38;;;;;;;;;;5056229;28;20184;-47
2023/04/22 03:42:43;;;;;;;6.55;4.05;;;;;;;;;;5055742;28;20203;-47
2023/04/22 03:45:11;;;;;;;7.07;3.95;;;;;;;;;;5055717;28;20207;-47
2023/04/22 03:47:43;;;;;;;4.75;2.95;;;;;;;;;;5056015;28;20187;-47
2023/04/22 03:50:19;;;;;;;5.07;3.20;;;;;;;;;;5055973;28;20210;-47
2023/04/22 03:52:48;;;;;;;6.22;3.20;;;;;;;;;;5055806;28;20223;-47
2023/04/22 03:55:19;;;;;;;7.00;3.28;;;;;;;;;;5056101;28;20195;-47
2023/04/22 03:57:48;;;;;;;6.45;3.08;;;;;;;;;;5055631;28;20226;-49
2023/04/22 04:00:16;;;;;;;7.97;3.85;;;;;;;;;;5055577;28;20207;-47
2023/04/22 04:02:50;;;;;;;6.18;3.95;;;;;;;;;;5055770;28;20199;-47
2023/04/22 04:05:22;;;;;;;7.22;3.80;;;;;;;;;;5049915;28;20219;-48
2023/04/22 04:07:50;;;;;;;4.95;3.00;;;;;;;;;;5053197;28;20208;-48
2023/04/22 04:10:17;;;;;;;5.82;3.45;;;;;;;;;;5053523;28;20253;-47
2023/04/22 04:12:44;;;;;;;7.07;3.58;;;;;;;;;;5036012;28;20208;-47
2023/04/22 04:15:11;;;;;;;5.43;3.58;;;;;;;;;;5035556;28;20199;-47
2023/04/22 04:17:39;;;;;;;6.85;3.60;;;;;;;;;;5035428;28;20689;-46
2023/04/22 04:20:07;;;;;;;7.85;3.88;;;;;;;;;;5031323;28;20576;-47
2023/04/22 04:22:35;;;;;;;8.82;3.70;;;;;;;;;;5016074;28;20197;-48
2023/04/22 04:25:05;;;;;;;6.90;4.03;;;;;;;;;;5015979;28;20278;-47
2023/04/22 04:27:38;;;;;;;7.13;4.07;;;;;;;;;;5015459;28;20593;-47
2023/04/22 04:30:06;;;;;;;7.10;4.07;;;;;;;;;;5015720;28;20690;-48
2023/04/22 04:32:41;;;;;;;6.68;4.10;;;;;;;;;;5015671;28;20254;-49
2023/04/22 04:35:14;;;;;;;7.45;4.35;;;;;;;;;;5016499;28;20205;-47
2023/04/22 04:37:46;;;;;;;7.45;4.30;;;;;;;;;;5015688;28;20282;-49
2023/04/22 04:40:14;;;;;;;9.57;4.10;;;;;;;;;;5015885;28;20204;-48
2023/04/22 04:43:07;;;;;;;5.55;3.85;;;;;;;;;;5015609;28;20201;-48
2023/04/22 04:45:54;;;;;;;7.40;4.05;;;;;;;;;;5032692;28;20197;-47
2023/04/22 04:48:34;;;;;;;6.75;4.05;;;;;;;;;;5015882;28;20208;-47
2023/04/22 04:51:08;;;;;;;6.43;3.80;;;;;;;;;;5015525;28;20211;-47
2023/04/22 04:53:40;;;;;;;7.50;3.95;;;;;;;;;;5015693;28;20200;-47
2023/04/22 04:56:07;;;;;;;6.13;3.70;;;;;;;;;;5015732;28;20201;-48
2023/04/22 04:58:35;;;;;;;9.65;5.05;;;;;;;;;;5015326;28;20843;-46
2023/04/22 05:01:17;;;;;;;9.23;4.75;;;;;;;;;;5033177;28;20212;-49
2023/04/22 05:03:45;;;;;;;6.97;4.22;;;;;;;;;;5015340;28;20213;-47
2023/04/22 05:06:15;;;;;;;5.53;3.80;;;;;;;;;;5060284;28;20250;-51
2023/04/22 05:08:47;;;;;;;7.90;3.97;;;;;;;;;;5041096;28;20197;-47
2023/04/22 05:11:14;;;;;;;8.10;4.10;;;;;;;;;;5043876;28;20195;-49
2023/04/22 05:13:44;;;;;;;8.70;4.20;;;;;;;;;;5044004;28;20203;-48
2023/04/22 05:16:18;;;;;;;7.80;4.20;;;;;;;;;;5054668;28;20264;-47
2023/04/22 05:18:45;;;;;;;8.35;4.20;;;;;;;;;;5071849;28;20306;-46
2023/04/22 05:21:15;;;;;;;8.00;4.35;;;;;;;;;;5054324;28;20242;-47
2023/04/22 05:23:43;;;;;;;9.48;4.10;;;;;;;;;;5054688;28;20656;-47
2023/04/22 05:26:11;;;;;;;8.50;4.75;;;;;;;;;;5055120;28;20211;-49
2023/04/22 05:28:41;;;;;;;6.47;4.18;;;;;;;;;;5038723;28;20675;-47
2023/04/22 05:31:08;;;;;;;7.68;4.75;;;;;;;;;;5054820;28;20192;-46
2023/04/22 05:33:36;;;;;;;6.40;4.32;;;;;;;;;;5054968;28;20203;-47
2023/04/22 05:36:05;;;;;;;9.15;4.78;;;;;;;;;;5072936;28;20204;-47
2023/04/22 05:38:32;;;;;;;8.30;4.22;;;;;;;;;;5054271;28;20216;-47
2023/04/22 05:40:59;;;;;;;9.15;4.30;;;;;;;;;;5048142;28;20202;-49
2023/04/22 05:43:27;;;;;;;6.32;4.18;;;;;;;;;;5045983;28;20224;-48
2023/04/22 05:46:06;;;;;;;8.05;4.55;;;;;;;;;;5064019;28;20250;-47
2023/04/22 05:48:36;;;;;;;9.70;4.32;;;;;;;;;;5046786;28;20218;-48
2023/04/22 05:51:08;;;;;;;5.88;4.03;;;;;;;;;;5046059;28;20183;-47
2023/04/22 05:53:35;;;;;;;6.88;4.30;;;;;;;;;;5047829;28;20267;-50
2023/04/22 05:56:03;;;;;;;7.65;4.72;;;;;;;;;;5035918;28;20232;-48
2023/04/22 05:58:30;;;;;;;7.13;4.32;;;;;;;;;;5063625;28;20236;-48
2023/04/22 06:01:01;;;;;;;6.35;4.20;;;;;;;;;;5050684;28;20577;-49
2023/04/22 06:03:47;;;;;;;8.90;4.40;;;;;;;;;;5065592;28;20693;-48
2023/04/22 06:06:15;;;;;;;6.47;3.88;;;;;;;;;;5037170;28;20227;-48
2023/04/22 06:08:42;;;;;;;7.10;4.53;;;;;;;;;;5064071;28;20216;-47
2023/04/22 06:11:10;;;;;;;8.43;4.38;;;;;;;;;;5038363;28;20315;-50
2023/04/22 06:13:37;;;;;;;8.20;4.22;;;;;;;;;;5038448;28;20228;-48
2023/04/22 06:16:05;;;;;;;6.85;4.15;;;;;;;;;;5063141;28;20276;-52
2023/04/22 06:18:37;;;;;;;9.57;4.68;;;;;;;;;;5042530;28;20227;-49
2023/04/22 06:21:09;;;;;;;8.52;4.63;;;;;;;;;;5041982;28;20247;-48
2023/04/22 06:23:36;;;;;;;8.43;4.60;;;;;;;;;;5042066;28;20302;-52
2023/04/22 06:26:04;;;;;;;7.22;4.47;;;;;;;;;;5043792;28;20215;-51
2023/04/22 06:28:32;;;;;;;7.97;3.80;;;;;;;;;;5036885;28;20250;-52
2023/04/22 06:31:04;;;;;;;5.85;3.88;;;;;;;;;;5036625;28;20706;-52
2023/04/22 06:33:31;;;;;;;6.63;4.40;;;;;;;;;;5029886;28;20212;-48
2023/04/22 06:36:00;;;;;;;7.88;3.85;;;;;;;;;;5025932;28;20220;-51
2023/04/22 06:38:29;;;;;;;7.43;4.05;;;;;;;;;;5030810;28;20236;-49
2023/04/22 06:41:26;;;;;;;8.90;4.30;;;;;;;;;;4958655;28;20234;-52
2023/04/22 06:43:58;;;;;;;7.57;3.50;;;;;;;;;;5025122;28;20209;-52
2023/04/22 06:46:45;;;;;;;6.93;3.70;;;;;;;;;;5034649;28;20197;-50
2023/04/22 06:49:45;;;;;;;8.10;3.85;;;;;;;;;;4999725;28;20239;-48
2023/04/22 06:52:38;;;;;;;6.90;3.72;;;;;;;;;;5040746;28;20196;-49
2023/04/22 06:55:06;;;;;;;6.65;3.92;;;;;;;;;;5036843;28;20299;-49
2023/04/22 06:57:33;;;;;;;6.65;3.90;;;;;;;;;;5037070;28;20229;-50
2023/04/22 07:00:01;;;;;;;6.70;4.03;;;;;;;;;;5036779;28;20653;-49
2023/04/22 07:02:30;;;;;;;5.97;3.00;;;;;;;;;;5036393;28;20207;-49
2023/04/22 07:04:57;;;;;;;7.32;4.15;;;;;;;;;;5054719;28;20211;-49
2023/04/22 07:07:24;;;;;;;6.18;3.95;;;;;;;;;;5060395;28;20215;-50
2023/04/22 07:09:52;;;;;;;6.32;3.47;;;;;;;;;;5056348;28;20290;-48
2023/04/22 07:12:19;;;;;;;7.03;3.85;;;;;;;;;;5073746;28;20204;-50
2023/04/22 07:14:48;;;;;;;6.18;4.05;;;;;;;;;;5074365;28;20206;-53
2023/04/22 07:17:18;;;;;;;8.98;3.75;;;;;;;;;;5074069;28;20199;-50
2023/04/22 07:19:45;;;;;;;7.75;3.70;;;;;;;;;;5074604;28;20200;-50
2023/04/22 07:22:12;;;;;;;9.32;4.03;;;;;;;;;;5093884;28;20198;-51
2023/04/22 07:24:39;;;;;;;5.63;3.85;;;;;;;;;;5094495;28;20199;-52
2023/04/22 07:27:07;;;;;;;6.47;3.78;;;;;;;;;;5094103;28;20190;-49
2023/04/22 07:29:34;;;;;;;6.82;4.07;;;;;;;;;;5094411;28;20294;-48
2023/04/22 07:32:01;;;;;;;7.78;4.43;;;;;;;;;;5093309;28;20203;-49
2023/04/22 07:34:28;;;;;;;6.70;3.45;;;;;;;;;;5080167;28;20570;-49
2023/04/22 07:36:55;;;;;;;7.20;3.92;;;;;;;;;;5065794;28;20211;-49
2023/04/22 07:39:22;;;;;;;8.50;3.28;;;;;;;;;;5073524;28;20294;-50
2023/04/22 07:41:50;;;;;;;5.97;3.28;;;;;;;;;;5021536;28;20191;-49
2023/04/22 07:44:20;;;;;;;3.85;2.65;;;;;;;;;;5053863;28;20208;-53
2023/04/22 07:46:49;;;;;;;5.43;3.38;;;;;;;;;;5071445;28;20199;-48
2023/04/22 07:49:16;;;;;;;5.80;3.25;;;;;;;;;;5053050;28;20697;-48
2023/04/22 07:51:43;;;;;;;7.65;3.42;;;;;;;;;;5069036;28;20655;-54
2023/04/22 07:54:11;;;;;;;4.75;2.95;;;;;;;;;;5074861;28;20218;-48
2023/04/22 07:56:38;;;;;;;5.40;3.08;;;;;;;;;;5073790;28;20203;-47
2023/04/22 07:59:05;;;;;;;5.57;3.33;;;;;;;;;;5073742;28;20264;-48
2023/04/22 08:01:33;;;;;;;4.63;2.40;;;;;;;;;;5073534;28;20205;-48
2023/04/22 08:04:00;;;;;;;4.40;2.90;;;;;;;;;;5073045;28;20660;-52
2023/04/22 08:06:28;;;;;;;7.35;2.85;;;;;;;;;;5073536;28;20203;-47
2023/04/22 08:08:55;;;;;;;4.55;2.45;;;;;;;;;;5080748;28;20199;-47
2023/04/22 08:11:22;;;;;;;3.42;2.30;;;;;;;;;;5074413;28;20204;-49
2023/04/22 08:13:49;;;;;;;2.80;1.65;;;;;;;;;;5073228;28;20215;-49
2023/04/22 08:16:16;;;;;;;4.15;1.20;;;;;;;;;;5073503;28;20214;-48
2023/04/22 08:18:43;;;;;;;3.70;1.17;;;;;;;;;;5082259;28;20218;-48
2023/04/22 08:21:11;;;;;;;2.45;1.08;;;;;;;;;;5073472;28;20227;-47
2023/04/22 08:23:38;;;;;;;4.05;1.38;;;;;;;;;;5067606;28;20723;-48
2023/04/22 08:26:07;;;;;;;2.80;1.67;;;;;;;;;;5072544;28;20199;-51
2023/04/22 08:28:34;;;;;;;2.20;1.55;;;;;;;;;;5064236;28;20202;-47
2023/04/22 08:31:01;;;;;;;3.33;1.50;;;;;;;;;;5080570;28;20191;-50
2023/04/22 08:33:28;;;;;;;2.58;1.05;;;;;;;;;;5075709;28;20206;-52
2023/04/22 08:35:56;;;;;;;1.52;1.00;;;;;;;;;;5065092;28;20250;-48
2023/04/22 08:38:23;;;;;;;3.13;1.15;;;;;;;;;;5062390;28;20219;-49
2023/04/22 08:40:50;;;;;;;2.47;0.98;;;;;;;;;;5078799;28;20589;-50
2023/04/22 08:43:17;;;;;;;1.73;0.90;;;;;;;;;;5079908;28;20199;-49
2023/04/22 08:45:45;;;;;;;1.45;1.05;;;;;;;;;;5051345;28;20212;-52
2023/04/22 08:48:13;;;;;;;0.95;0.70;;;;;;;;;;5078770;28;20644;-47
2023/04/22 08:50:41;;;;;;;1.55;1.10;;;;;;;;;;5060974;28;20196;-51
2023/04/22 08:53:08;;;;;;;3.03;1.45;;;;;;;;;;5069700;28;20727;-48
2023/04/22 08:55:36;;;;;;;4.43;1.25;;;;;;;;;;5078879;28;20199;-54
2023/04/22 08:58:04;;;;;;;1.75;1.13;;;;;;;;;;5081564;28;20272;-49
2023/04/22 09:00:33;;;;;;;1.30;0.90;;;;;;;;;;5080245;28;20194;-50
2023/04/22 09:03:01;;;;;;;1.50;1.05;;;;;;;;;;5076153;28;20645;-48
2023/04/22 09:05:32;;;;;;;1.70;1.00;;;;;;;;;;5074107;28;20668;-48
2023/04/22 09:08:00;;;;;;;1.23;0.93;;;;;;;;;;5083453;28;20198;-52
2023/04/22 09:10:27;;;;;;;1.15;0.80;;;;;;;;;;5086632;28;20188;-49
2023/04/22 09:12:55;;;;;;;0.95;0.80;;;;;;;;;;5052667;28;20211;-50
2023/04/22 09:15:23;;;;;;;1.45;0.90;;;;;;;;;;5081905;28;20214;-47
2023/04/22 09:17:51;;;;;;;0.77;0.52;;;;;;;;;;5090241;28;20655;-48
2023/04/22 09:20:25;;;;;;;0.90;0.68;;;;;;;;;;5076039;28;20235;-49
2023/04/22 09:22:52;;;;;;;2.13;0.80;;;;;;;;;;5077121;28;20234;-48
2023/04/22 09:25:20;;;;;;;1.48;0.60;;;;;;;;;;5076150;28;20305;-47
2023/04/22 09:27:53;;;;;;;0.70;0.70;;;;;;;;;;5076269;28;20203;-47
2023/04/22 09:30:28;;;;;;;1.45;0.80;;;;;;;;;;5075851;28;20648;-55
2023/04/22 09:32:56;;;;;;;2.72;0.93;;;;;;;;;;5070302;28;20206;-48
2023/04/22 09:35:32;;;;;;;1.40;0.90;;;;;;;;;;5060054;28;20207;-48
2023/04/22 09:38:01;;;;;;;1.25;0.40;;;;;;;;;;5082131;28;20222;-47
2023/04/22 09:40:29;;;;;;;1.45;0.82;;;;;;;;;;5084582;28;20248;-47
2023/04/22 09:43:00;;;;;;;0.98;0.70;;;;;;;;;;5084496;28;20195;-48
2023/04/22 09:45:38;;;;;;;1.20;0.70;;;;;;;;;;5083509;28;20474;-48
2023/04/22 09:48:06;;;;;;;0.90;0.57;;;;;;;;;;5083596;28;20203;-49
2023/04/22 09:50:35;;;;;;;0.60;0.52;;;;;;;;;;5081647;28;20192;-51
2023/04/22 09:53:04;;;;;;;2.20;0.73;;;;;;;;;;5084236;28;20202;-47
2023/04/22 09:55:35;;;;;;;1.25;0.70;;;;;;;;;;5081273;28;20192;-47
2023/04/22 09:58:10;;;;;;;0.55;0.50;;;;;;;;;;5079063;28;20208;-49
2023/04/22 10:00:56;;;;;;;2.17;0.70;;;;;;;;;;5081451;28;20202;-48
2023/04/22 10:03:23;;;;;;;1.15;0.60;;;;;;;;;;5085363;28;20283;-48
2023/04/22 10:05:51;;;;;;;1.45;0.60;;;;;;;;;;5083366;28;20199;-48
2023/04/22 10:08:18;;;;;;;1.35;0.70;;;;;;;;;;5085303;28;20276;-49
2023/04/22 10:10:45;;;;;;;1.10;0.70;;;;;;;;;;5081237;28;20214;-55
2023/04/22 10:13:12;;;;;;;0.77;0.70;;;;;;;;;;5083941;28;20191;-49
2023/04/22 10:15:54;;;;;;;0.80;0.75;;;;;;;;;;5083378;28;20191;-48
2023/04/22 10:18:23;;;;;;;1.65;0.80;;;;;;;;;;5084006;28;20203;-48
2023/04/22 10:20:52;;;;;;;0.63;0.50;;;;;;;;;;5062666;28;20234;-48
2023/04/22 10:23:22;;;;;;;1.25;0.70;;;;;;;;;;5065330;28;20234;-48
2023/04/22 10:25:52;;;;;;;1.05;0.70;;;;;;;;;;5054595;28;20215;-50
2023/04/22 10:28:21;;;;;;;1.25;0.70;;;;;;;;;;5055636;28;20242;-49
2023/04/22 10:30:49;;;;;;;1.98;0.70;;;;;;;;;;5055327;28;20214;-48
2023/04/22 10:33:19;;;;;;;1.13;0.80;;;;;;;;;;5055145;28;20211;-49
2023/04/22 10:36:09;;;;;;;1.00;0.70;;;;;;;;;;5061379;28;20580;-48
2023/04/22 10:38:48;;;;;;;1.58;0.90;;;;;;;;;;5079939;28;20207;-50
2023/04/22 10:41:16;;;;;;;2.30;0.88;;;;;;;;;;5081762;28;20717;-50
2023/04/22 10:43:45;;;;;;;0.88;0.63;;;;;;;;;;5057360;28;20198;-50
2023/04/22 10:46:31;;;;;;;1.02;0.60;;;;;;;;;;5095076;28;20203;-51
2023/04/22 10:49:05;;;;;;;0.95;0.73;;;;;;;;;;5043742;28;20219;-50
2023/04/22 10:51:43;;;;;;;1.58;0.68;;;;;;;;;;5063932;28;20211;-49
2023/04/22 10:54:28;;;;;;;0.85;0.73;;;;;;;;;;5054760;28;20187;-48
2023/04/22 10:57:21;;;;;;;1.48;0.80;;;;;;;;;;5054971;28;20223;-51
2023/04/22 10:59:52;;;;;;;0.95;0.70;;;;;;;;;;5054854;28;20577;-50
2023/04/22 11:02:21;;;;;;;0.88;0.77;;;;;;;;;;5054555;28;20200;-49
2023/04/22 11:04:49;;;;;;;1.55;0.80;;;;;;;;;;5054764;28;20214;-50
2023/04/22 11:07:21;;;;;;;0.80;0.68;;;;;;;;;;5037000;28;20208;-50
2023/04/22 11:09:51;;;;;;;3.33;0.90;;;;;;;;;;5054653;28;20581;-48
2023/04/22 11:12:33;;;;;;;1.25;0.88;;;;;;;;;;5054220;28;20211;-49
2023/04/22 11:15:11;;;;;;;2.17;0.77;;;;;;;;;;5054295;28;20648;-48
2023/04/22 11:17:49;;;;;;;0.75;0.70;;;;;;;;;;5054315;28;20207;-47
2023/04/22 11:20:16;;;;;;;2.20;1.00;;;;;;;;;;5054405;28;20238;-46
2023/04/22 11:22:51;;;;;;;2.35;1.00;;;;;;;;;;5054292;28;20188;-49
2023/04/22 11:25:19;;;;;;;1.17;0.80;;;;;;;;;;5054454;28;20198;-46
2023/04/22 11:27:47;;;;;;;1.45;0.77;;;;;;;;;;5054445;28;20537;-46
2023/04/22 11:30:18;;;;;;;1.25;0.70;;;;;;;;;;5054234;28;20208;-46
2023/04/22 11:32:51;;;;;;;0.65;0.63;;;;;;;;;;5054113;28;20207;-46
2023/04/22 11:35:32;;;;;;;0.80;0.70;;;;;;;;;;5053984;28;20197;-46
2023/04/22 11:38:01;;;;;;;1.05;0.60;;;;;;;;;;5053095;28;20188;-49
2023/04/22 11:40:33;;;;;;;0.60;0.55;;;;;;;;;;5053697;28;20731;-46
2023/04/22 11:43:07;;;;;;;2.22;1.10;;;;;;;;;;5053995;28;20214;-48
2023/04/22 11:45:35;;;;;;;0.88;0.65;;;;;;;;;;5053725;28;20205;-47
2023/04/22 11:48:05;;;;;;;1.27;0.50;;;;;;;;;;5053803;28;20231;-50
2023/04/22 11:50:34;;;;;;;2.65;1.00;;;;;;;;;;5054040;28;20218;-46
2023/04/22 11:53:03;;;;;;;1.85;1.13;;;;;;;;;;5053763;28;20208;-38
2023/04/22 11:55:37;;;;;;;2.03;0.85;;;;;;;;;;5053727;28;20207;-38
2023/04/22 11:58:13;;;;;;;1.00;0.80;;;;;;;;;;5065136;28;20195;-38
2023/04/22 12:00:45;;;;;;;1.63;0.80;;;;;;;;;;5073673;28;20215;-38
2023/04/22 12:03:13;;;;;;;1.58;0.85;;;;;;;;;;5074008;28;20191;-38
2023/04/22 12:05:45;;;;;;;1.13;0.80;;;;;;;;;;5073192;28;20203;-38
2023/04/22 12:08:15;;;;;;;1.42;0.90;;;;;;;;;;5073312;28;20606;-38
2023/04/22 12:10:51;;;;;;;1.45;0.90;;;;;;;;;;5073419;28;20253;-38
2023/04/22 12:13:30;;;;;;;2.60;1.00;;;;;;;;;;5073529;28;20195;-38
2023/04/22 12:16:01;;;;;;;2.58;0.88;;;;;;;;;;5073613;28;20221;-38
2023/04/22 12:18:31;;;;;;;1.55;0.73;;;;;;;;;;5073421;28;20207;-38
2023/04/22 12:21:12;;;;;;;1.23;0.70;;;;;;;;;;5073613;28;20238;-38
2023/04/22 12:23:47;;;;;;;2.08;1.10;;;;;;;;;;5073529;28;20237;-38
2023/04/22 12:26:16;;;;;;;2.05;0.70;;;;;;;;;;5073648;28;20252;-38
2023/04/22 12:28:44;;;;;;;0.77;0.70;;;;;;;;;;5063322;28;20604;-37
2023/04/22 12:31:13;;;;;;;1.35;0.65;;;;;;;;;;5074187;28;20195;-38
2023/04/22 12:33:41;;;;;;;2.00;0.77;;;;;;;;;;5091889;28;20202;-37
2023/04/22 12:36:08;;;;;;;0.90;0.70;;;;;;;;;;5092667;28;20226;-37
2023/04/22 12:38:36;;;;;;;1.75;1.00;;;;;;;;;;5092325;28;20593;-39
2023/04/22 12:41:04;;;;;;;0.90;0.70;;;;;;;;;;5093043;28;20201;-40
2023/04/22 12:43:35;;;;;;;2.00;1.10;;;;;;;;;;5093245;28;20601;-39
2023/04/22 12:46:03;;;;;;;2.35;1.15;;;;;;;;;;5093304;28;20660;-39
2023/04/22 12:48:31;;;;;;;1.75;1.02;;;;;;;;;;5089371;28;20210;-40
2023/04/22 12:50:59;;;;;;;1.33;1.02;;;;;;;;;;5065050;28;20226;-41
2023/04/22 12:53:26;;;;;;;3.05;1.00;;;;;;;;;;5077295;28;20200;-39
2023/04/22 12:55:54;;;;;;;1.83;0.88;;;;;;;;;;5083759;28;20195;-39
2023/04/22 12:58:22;;;;;;;2.58;0.70;;;;;;;;;;5058039;28;20206;-38
2023/04/22 13:00:49;;;;;;;1.40;0.95;;;;;;;;;;5073288;28;20234;-39
2023/04/22 13:03:16;;;;;;;2.13;0.80;;;;;;;;;;5061127;28;20206;-39
2023/04/22 13:05:44;;;;;;;1.70;0.90;;;;;;;;;;5065925;28;20280;-39
2023/04/22 13:08:11;;;;;;;2.90;1.13;;;;;;;;;;5065226;28;20192;-40
2023/04/22 13:10:38;;;;;;;1.83;0.80;;;;;;;;;;5064036;28;20607;-39
2023/04/22 13:13:07;;;;;;;1.40;1.10;;;;;;;;;;5055384;28;20203;-39
2023/04/22 13:15:37;;;;;;;2.17;0.90;;;;;;;;;;5055033;28;20200;-39
2023/04/22 13:18:05;;;;;;;1.33;0.93;;;;;;;;;;5054981;28;20262;-40
2023/04/22 13:20:32;;;;;;;2.05;0.80;;;;;;;;;;5054288;28;20700;-40
2023/04/22 13:23:01;;;;;;;2.42;1.30;;;;;;;;;;5055706;28;20207;-39
2023/04/22 13:25:28;;;;;;;1.42;0.95;;;;;;;;;;5056302;28;20688;-40
2023/04/22 13:27:55;;;;;;;2.22;1.23;;;;;;;;;;5057061;28;20663;-40
2023/04/22 13:30:22;;;;;;;8.60;5.45;;;;;;;;;;5077261;28;20210;-39
2023/04/22 13:32:49;;;;;;;1.67;1.30;;;;;;;;;;5090101;28;20196;-40
2023/04/22 13:35:17;;;;;;;28.83;13.73;;;;;;;;;;5082017;28;20237;-41
2023/04/22 13:37:45;;;;;;;4.30;1.55;;;;;;;;;;5092843;28;20202;-40
2023/04/22 13:40:12;;;;;;;1.77;1.10;;;;;;;;;;5081723;28;20211;-40
2023/04/22 13:42:40;;;;;;;1.42;0.88;;;;;;;;;;5084417;28;20199;-40
2023/04/22 13:45:08;;;;;;;26.75;14.20;;;;;;;;;;5088918;28;20234;-40
2023/04/22 13:47:35;;;;;;;2.33;1.50;;;;;;;;;;5080502;28;20837;-39
2023/04/22 13:50:04;;;;;;;0.90;0.70;;;;;;;;;;5067287;28;20231;-39
2023/04/22 13:52:31;;;;;;;1.13;0.80;;;;;;;;;;5082548;28;20261;-40
2023/04/22 13:54:58;;;;;;;1.40;0.93;;;;;;;;;;5083816;28;20245;-39
2023/04/22 13:57:26;;;;;;;1.25;0.70;;;;;;;;;;5055651;28;20669;-40
2023/04/22 13:59:53;;;;;;;1.40;0.93;;;;;;;;;;5055099;28;20590;-35
2023/04/22 14:02:20;;;;;;;0.68;0.68;;;;;;;;;;5055967;28;20207;-38
2023/04/22 14:04:48;;;;;;;2.10;0.70;;;;;;;;;;5074065;28;20643;-38
2023/04/22 14:07:15;;;;;;;1.35;0.85;;;;;;;;;;5082916;28;20191;-38
2023/04/22 14:09:42;;;;;;;3.38;1.10;;;;;;;;;;5082759;28;20204;-37
2023/04/22 14:12:10;;;;;;;1.42;1.17;;;;;;;;;;5089386;28;20195;-36
2023/04/22 14:14:37;;;;;;;2.63;1.77;;;;;;;;;;5096178;28;20210;-37
2023/04/22 14:17:05;;;;;;;3.20;2.47;;;;;;;;;;5095656;28;20256;-37
2023/04/22 14:19:35;;;;;;;2.00;1.00;;;;;;;;;;5095171;28;20219;-37
2023/04/22 14:22:02;;;;;;;1.55;0.90;;;;;;;;;;5078426;28;20286;-38
2023/04/22 14:24:29;;;;;;;0.85;0.63;;;;;;;;;;5062175;28;20278;-36
2023/04/22 14:27:00;;;;;;;1.95;1.00;;;;;;;;;;5055285;28;20200;-37
2023/04/22 14:29:28;;;;;;;1.00;0.85;;;;;;;;;;5039837;28;20810;-37
2023/04/22 14:31:56;;;;;;;2.58;1.77;;;;;;;;;;5093285;28;20226;-37
2023/04/22 14:34:23;;;;;;;1.45;0.80;;;;;;;;;;5093370;28;20663;-38
2023/04/22 14:36:50;;;;;;;2.22;1.15;;;;;;;;;;5093613;28;20210;-37
2023/04/22 14:39:17;;;;;;;1.23;0.90;;;;;;;;;;5093360;28;20732;-37
2023/04/22 14:41:45;;;;;;;1.17;0.90;;;;;;;;;;5093612;28;20198;-37
2023/04/22 14:44:13;;;;;;;1.52;0.80;;;;;;;;;;5093948;28;20203;-37
2023/04/22 14:46:40;;;;;;;1.30;0.80;;;;;;;;;;5095311;28;20739;-37
2023/04/22 14:49:07;;;;;;;2.70;0.60;;;;;;;;;;5095149;28;20622;-37
2023/04/22 14:51:35;;;;;;;0.88;0.73;;;;;;;;;;5095142;28;20203;-37
2023/04/22 14:54:02;;;;;;;1.58;1.02;;;;;;;;;;5092269;28;20509;-39